Time;durP1;ratioP1;P1;durP2;ratioP2;P2;SDS_P1;SDS_P2;PMS_P1;PMS_P2;Temp;Humidity;BMP_temperature;BMP_pressure;BME280_temperature;BME280_humidity;BME280_pressure;Samples;Min_cycle;Max_cycle;Signal;HPM_P1;HPM_P2
2022/01/26 00:00:58;;;;;;;187.75;28.02;;;;;;;3.04;100.00;97671.31;4998475;28;20065;-52
2022/01/26 00:06:18;;;;;;;89.45;25.52;;;;;;;3.98;100.00;97665.22;4994798;28;20062;-50
2022/01/26 00:08:48;;;;;;;137.70;26.52;;;;;;;4.01;100.00;97665.06;4997439;28;20101;-50
2022/01/26 00:11:16;;;;;;;92.72;25.33;;;;;;;4.12;100.00;97663.69;4995228;28;20077;-48
2022/01/26 00:13:45;;;;;;;104.30;26.13;;;;;;;4.48;100.00;97663.66;4991234;28;20066;-56
2022/01/26 00:16:23;;;;;;;134.30;26.80;;;;;;;4.52;100.00;97666.03;4997041;28;20082;-50
2022/01/26 00:18:54;;;;;;;115.53;25.60;;;;;;;4.05;100.00;97663.16;4992049;28;20464;-57
2022/01/26 00:21:35;;;;;;;285.15;32.47;;;;;;;3.79;100.00;97656.59;4990394;28;20065;-48
2022/01/26 00:29:49;;;;;;;107.13;26.20;;;;;;;3.46;100.00;97652.03;4987789;28;20642;-53
2022/01/26 00:40:40;;;;;;;104.75;27.52;;;;;;;3.83;100.00;97641.63;4992026;28;20073;-50
2022/01/26 00:43:15;;;;;;;139.07;28.92;;;;;;;3.94;100.00;97641.97;4995371;28;20062;-54
2022/01/26 00:45:44;;;;;;;181.85;29.58;;;;;;;3.70;100.00;97641.38;4997637;28;20100;-54
2022/01/26 00:48:19;;;;;;;127.32;28.40;;;;;;;3.13;100.00;97645.75;4998697;28;20065;-53
2022/01/26 00:50:51;;;;;;;124.75;28.92;;;;;;;3.48;100.00;97641.53;4993532;28;20070;-51
2022/01/26 00:53:24;;;;;;;154.88;29.90;;;;;;;4.05;100.00;97632.66;4998396;28;20532;-52
2022/01/26 00:55:53;;;;;;;122.32;28.17;;;;;;;3.33;100.00;97630.88;4989370;28;20633;-51
2022/01/26 00:58:22;;;;;;;85.93;27.85;;;;;;;3.79;100.00;97623.50;4999313;28;20077;-51
2022/01/26 01:00:50;;;;;;;92.78;28.38;;;;;;;3.66;100.00;97624.19;4994500;28;20057;-48
2022/01/26 01:03:19;;;;;;;138.27;28.92;;;;;;;3.84;100.00;97627.66;4998649;28;20177;-53
2022/01/26 01:05:50;;;;;;;104.97;29.70;;;;;;;3.50;100.00;97622.28;4991449;28;20093;-53
2022/01/26 01:08:23;;;;;;;115.25;29.67;;;;;;;4.24;100.00;97621.34;4971757;28;20082;-55
2022/01/26 01:10:52;;;;;;;156.32;32.50;;;;;;;3.41;100.00;97625.34;4972900;28;20071;-52
2022/01/26 01:13:30;;;;;;;102.72;30.83;;;;;;;3.68;100.00;97627.53;4973003;28;20071;-54
2022/01/26 01:15:58;;;;;;;76.65;27.75;;;;;;;3.83;100.00;97623.38;4991397;28;20100;-51
2022/01/26 01:18:34;;;;;;;84.68;29.45;;;;;;;3.42;100.00;97624.41;4996764;28;20085;-53
2022/01/26 01:29:23;;;;;;;88.25;30.05;;;;;;;3.99;100.00;97611.25;4992322;28;20705;-53
2022/01/26 01:31:54;;;;;;;91.90;31.00;;;;;;;4.31;100.00;97614.88;4998012;28;20065;-56
2022/01/26 01:34:26;;;;;;;98.55;30.95;;;;;;;4.08;100.00;97607.34;4992502;28;20070;-48
2022/01/26 01:37:01;;;;;;;95.82;29.70;;;;;;;4.31;100.00;97616.66;4992925;28;20081;-55
2022/01/26 01:39:31;;;;;;;87.00;30.17;;;;;;;4.66;100.00;97617.44;4994275;28;20074;-53
2022/01/26 01:41:59;;;;;;;93.15;31.52;;;;;;;4.60;100.00;97618.59;5000014;28;20058;-49
2022/01/26 01:44:28;;;;;;;89.60;30.35;;;;;;;4.40;100.00;97617.00;4999522;28;20077;-48
2022/01/26 01:46:57;;;;;;;88.05;31.55;;;;;;;4.78;100.00;97616.78;4995324;28;20465;-57
2022/01/26 01:49:26;;;;;;;84.10;31.10;;;;;;;4.82;100.00;97625.31;4992003;28;20527;-53
2022/01/26 01:51:58;;;;;;;100.53;32.22;;;;;;;4.87;100.00;97618.94;5002682;28;20078;-52
2022/01/26 01:54:27;;;;;;;86.47;32.22;;;;;;;4.72;100.00;97617.13;4998178;28;20076;-56
2022/01/26 01:56:58;;;;;;;84.97;30.33;;;;;;;4.15;100.00;97625.22;4994948;28;20058;-50
2022/01/26 01:59:29;;;;;;;86.97;32.38;;;;;;;4.41;100.00;97608.25;4994687;28;20176;-55
2022/01/26 02:01:59;;;;;;;86.72;30.15;;;;;;;4.36;100.00;97614.63;4992321;28;21410;-52
2022/01/26 02:04:28;;;;;;;77.35;29.05;;;;;;;4.04;100.00;97611.88;4998285;28;20062;-53
2022/01/26 02:06:57;;;;;;;72.93;30.85;;;;;;;4.33;100.00;97605.19;4997296;28;20058;-49
2022/01/26 02:09:25;;;;;;;83.50;30.52;;;;;;;3.26;100.00;97619.06;4999901;28;20069;-55
2022/01/26 02:11:58;;;;;;;72.63;29.30;;;;;;;2.79;100.00;97619.47;4998645;28;20077;-56
2022/01/26 02:14:31;;;;;;;87.43;31.85;;;;;;;2.44;100.00;97620.16;4994978;28;20569;-52
2022/01/26 02:17:10;;;;;;;70.00;29.50;;;;;;;2.97;100.00;97611.75;4996408;28;20236;-47
2022/01/26 02:50:38;;;;;;;83.40;30.60;;;;;;;1.92;100.00;97601.53;4972321;28;20089;-52
2022/01/26 02:56:03;;;;;;;76.55;30.00;;;;;;;2.07;100.00;97585.31;4974979;28;21526;-52
2022/01/26 02:58:55;;;;;;;79.65;29.63;;;;;;;1.57;100.00;97594.25;4997410;28;20085;-49
2022/01/26 03:01:43;;;;;;;87.53;32.60;;;;;;;2.02;100.00;97590.69;5000749;28;20073;-49
2022/01/26 03:04:19;;;;;;;84.38;34.80;;;;;;;1.95;100.00;97584.03;5004282;28;20057;-52
2022/01/26 03:06:54;;;;;;;88.78;35.15;;;;;;;2.08;100.00;97587.81;4996123;28;20062;-51
2022/01/26 03:09:27;;;;;;;94.78;35.97;;;;;;;1.88;100.00;97593.00;4995178;28;20054;-47
2022/01/26 03:11:59;;;;;;;96.75;35.00;;;;;;;2.17;100.00;97589.19;5001881;28;20539;-50
2022/01/26 03:14:37;;;;;;;94.88;34.40;;;;;;;1.93;100.00;97587.59;5004685;28;20070;-51
2022/01/26 03:17:26;;;;;;;79.82;29.63;;;;;;;1.71;100.00;97583.28;5002047;28;20408;-50
2022/01/26 03:20:00;;;;;;;86.18;32.83;;;;;;;1.86;100.00;97594.84;4999987;28;20532;-48
2022/01/26 03:28:20;;;;;;;85.85;32.70;;;;;;;1.99;100.00;97587.34;4954443;28;20070;-52
2022/01/26 03:33:53;;;;;;;90.80;33.75;;;;;;;1.72;100.00;97581.53;4977973;28;20069;-53
2022/01/26 03:36:25;;;;;;;86.22;32.28;;;;;;;1.84;100.00;97583.66;4994574;28;20631;-49
2022/01/26 03:39:01;;;;;;;90.18;32.25;;;;;;;1.92;100.00;97584.16;4994812;28;20497;-52
2022/01/26 03:41:38;;;;;;;85.53;33.03;;;;;;;1.62;100.00;97592.31;4998205;28;20077;-49
2022/01/26 03:44:09;;;;;;;88.78;31.70;;;;;;;1.83;100.00;97597.56;4998536;28;20077;-47
2022/01/26 03:46:37;;;;;;;92.20;33.20;;;;;;;2.02;100.00;97595.03;5000639;28;20448;-53
2022/01/26 03:49:07;;;;;;;88.22;31.23;;;;;;;2.14;100.00;97592.78;5006279;28;20520;-52
2022/01/26 03:51:36;;;;;;;87.07;30.48;;;;;;;1.84;100.00;97601.84;4995364;28;20468;-54
2022/01/26 03:54:05;;;;;;;86.38;31.33;;;;;;;1.83;100.00;97593.22;4994310;28;20120;-53
2022/01/26 03:56:34;;;;;;;86.97;31.88;;;;;;;2.20;100.00;97596.00;5000282;28;20077;-55
2022/01/26 03:59:03;;;;;;;84.40;31.50;;;;;;;2.29;100.00;97600.84;5000222;28;20073;-50
2022/01/26 04:01:34;;;;;;;86.55;32.67;;;;;;;2.01;100.00;97598.56;4993907;28;20069;-49
2022/01/26 04:04:03;;;;;;;86.22;30.67;;;;;;;2.59;100.00;97594.31;5000967;28;20062;-48
2022/01/26 04:06:33;;;;;;;81.43;30.48;;;;;;;1.81;100.00;97592.41;4996597;28;20077;-49
2022/01/26 04:09:04;;;;;;;80.93;31.73;;;;;;;1.96;100.00;97592.69;4993120;28;20065;-52
2022/01/26 04:11:38;;;;;;;81.80;32.72;;;;;;;1.84;100.00;97583.66;4996751;28;20078;-54
2022/01/26 04:14:08;;;;;;;82.65;32.13;;;;;;;2.01;100.00;97588.16;5005350;28;20670;-47
2022/01/26 04:16:40;;;;;;;83.82;31.63;;;;;;;2.01;100.00;97594.19;4998347;28;20096;-49
2022/01/26 04:19:10;;;;;;;80.28;32.10;;;;;;;1.95;100.00;97596.19;4982693;28;20521;-56
2022/01/26 04:21:51;;;;;;;84.75;31.08;;;;;;;1.94;100.00;97584.97;4976537;28;20070;-50
2022/01/26 04:24:23;;;;;;;77.00;30.30;;;;;;;1.81;100.00;97592.41;4975052;28;20413;-52
2022/01/26 04:26:57;;;;;;;91.93;32.30;;;;;;;1.72;100.00;97594.53;4976760;28;20069;-48
2022/01/26 04:29:28;;;;;;;82.82;30.13;;;;;;;1.73;100.00;97589.28;4979108;28;20077;-54
2022/01/26 04:31:59;;;;;;;72.82;27.17;;;;;;;1.59;100.00;97587.25;4998075;28;21422;-49
2022/01/26 04:34:28;;;;;;;93.78;31.23;;;;;;;1.78;100.00;97587.34;4974654;28;20070;-48
2022/01/26 04:37:02;;;;;;;83.03;30.13;;;;;;;1.57;100.00;97591.66;4974546;28;20142;-48
2022/01/26 04:39:36;;;;;;;89.22;31.63;;;;;;;1.74;100.00;97595.34;4977678;28;20072;-56
2022/01/26 04:42:09;;;;;;;80.43;30.35;;;;;;;1.55;100.00;97601.28;4974253;28;20074;-55
2022/01/26 04:44:43;;;;;;;88.90;31.60;;;;;;;1.31;100.00;97597.06;4970547;28;20086;-47
2022/01/26 04:47:12;;;;;;;82.45;30.05;;;;;;;1.44;100.00;97598.25;4976694;28;20070;-48
2022/01/26 04:49:41;;;;;;;87.50;30.88;;;;;;;1.60;100.00;97601.94;4972812;28;20070;-46
2022/01/26 04:52:10;;;;;;;77.18;26.83;;;;;;;1.28;100.00;97597.16;4973307;28;20468;-52
2022/01/26 04:54:38;;;;;;;78.45;30.17;;;;;;;1.52;100.00;97598.81;4976649;28;20063;-47
2022/01/26 04:57:07;;;;;;;83.95;32.10;;;;;;;1.31;100.00;97595.28;4976250;28;20085;-51
2022/01/26 04:59:35;;;;;;;90.75;31.35;;;;;;;1.36;100.00;97595.09;5001001;28;20558;-59
2022/01/26 05:02:04;;;;;;;82.70;29.13;;;;;;;1.78;100.00;97586.50;5006209;28;20084;-52
2022/01/26 05:04:34;;;;;;;89.45;33.05;;;;;;;1.64;100.00;97589.66;4991783;28;20080;-48
2022/01/26 05:07:03;;;;;;;92.78;32.65;;;;;;;1.68;100.00;97583.41;5004775;28;20108;-45
2022/01/26 05:09:31;;;;;;;93.65;34.13;;;;;;;1.84;100.00;97586.25;4994568;28;20076;-59
2022/01/26 05:12:01;;;;;;;93.45;34.97;;;;;;;1.46;100.00;97585.19;4993645;28;20062;-48
2022/01/26 05:14:30;;;;;;;84.57;32.90;;;;;;;1.46;100.00;97583.44;4994981;28;20088;-49
2022/01/26 05:16:58;;;;;;;85.93;31.23;;;;;;;1.52;100.00;97585.81;4991278;28;20065;-50
2022/01/26 05:19:27;;;;;;;91.18;34.20;;;;;;;1.67;100.00;97579.13;4993591;28;20069;-54
2022/01/26 05:21:58;;;;;;;81.28;31.17;;;;;;;1.52;100.00;97578.00;4981537;28;20058;-49
2022/01/26 05:24:26;;;;;;;84.63;32.65;;;;;;;1.78;100.00;97573.50;4974494;28;20066;-57
2022/01/26 05:26:55;;;;;;;82.57;31.00;;;;;;;1.57;100.00;97577.81;4971015;28;20070;-49
2022/01/26 05:29:23;;;;;;;79.18;32.10;;;;;;;1.72;100.00;97582.41;4971487;28;20089;-49
2022/01/26 05:31:51;;;;;;;92.25;36.30;;;;;;;1.40;100.00;97584.53;4970650;28;20078;-53
2022/01/26 05:34:20;;;;;;;91.85;34.50;;;;;;;1.59;100.00;97584.66;4987142;28;20065;-50
2022/01/26 05:36:48;;;;;;;82.30;32.65;;;;;;;1.51;100.00;97584.09;4985201;28;20062;-48
2022/01/26 05:39:18;;;;;;;75.00;30.15;;;;;;;1.12;100.00;97587.34;4972538;28;20085;-47
2022/01/26 05:41:47;;;;;;;87.55;33.75;;;;;;;1.62;100.00;97589.72;4974714;28;20525;-50
2022/01/26 05:44:15;;;;;;;84.55;31.13;;;;;;;1.62;100.00;97589.72;4979602;28;20279;-49
2022/01/26 05:46:47;;;;;;;94.22;36.50;;;;;;;-146.19;100.00;58918.88;4975653;28;20117;-55
2022/01/26 05:49:17;;;;;;;75.35;31.70;;;;;;;-146.19;100.00;58918.88;4975354;28;20077;-55
2022/01/26 05:51:46;;;;;;;77.10;30.70;;;;;;;-146.19;100.00;58918.88;4971932;28;20061;-53
2022/01/26 05:54:16;;;;;;;81.70;31.25;;;;;;;-146.19;100.00;58918.88;4977607;28;20069;-55
2022/01/26 05:56:47;;;;;;;78.95;29.42;;;;;;;-146.19;100.00;58918.88;4994940;28;20556;-53
2022/01/26 05:59:16;;;;;;;75.60;30.73;;;;;;;-146.19;100.00;58918.88;5004231;28;20066;-51
2022/01/26 06:01:45;;;;;;;79.13;30.17;;;;;;;-146.19;100.00;58918.88;4996467;28;20066;-52
2022/01/26 06:04:13;;;;;;;74.35;28.15;;;;;;;-146.19;100.00;58918.88;4995787;28;20057;-48
2022/01/26 06:06:42;;;;;;;70.10;27.85;;;;;;;1.39;100.00;97587.19;4994457;28;20476;-46
2022/01/26 06:09:10;;;;;;;72.32;28.88;;;;;;;1.01;100.00;97606.84;5001744;28;20110;-49
2022/01/26 06:11:39;;;;;;;75.15;29.40;;;;;;;0.98;100.00;97605.22;4999529;28;20080;-49
2022/01/26 06:14:08;;;;;;;79.05;30.60;;;;;;;1.17;100.00;97610.53;4997457;28;20092;-48
2022/01/26 06:16:37;;;;;;;70.35;30.63;;;;;;;1.14;100.00;97615.88;4998722;28;20066;-47
2022/01/26 06:19:06;;;;;;;70.57;28.95;;;;;;;1.24;100.00;97616.34;4997219;28;20068;-54
2022/01/26 06:21:35;;;;;;;75.43;29.85;;;;;;;188.59;100.00;-17109.81;5000204;28;20070;-50
2022/01/26 06:24:03;;;;;;;71.18;28.20;;;;;;;1.32;100.00;97616.94;5000864;28;20777;-49
2022/01/26 06:26:32;;;;;;;75.47;32.35;;;;;;;1.23;100.00;58918.88;5003132;28;20089;-47
2022/01/26 06:29:00;;;;;;;78.70;31.00;;;;;;;-146.19;100.00;58918.88;5007954;28;20077;-54
2022/01/26 06:31:30;;;;;;;80.70;31.00;;;;;;;-146.19;100.00;58918.88;4998618;28;20062;-46
2022/01/26 06:34:02;;;;;;;78.10;31.67;;;;;;;-146.19;100.00;58918.88;5005856;28;20076;-55
2022/01/26 06:36:30;;;;;;;73.13;29.70;;;;;;;-146.19;100.00;58918.88;4993516;28;20054;-48
2022/01/26 06:38:58;;;;;;;73.97;31.13;;;;;;;-146.19;100.00;58918.88;5004502;28;20557;-57
2022/01/26 06:41:28;;;;;;;85.55;33.53;;;;;;;-146.19;100.00;58918.88;4998576;28;20078;-53
2022/01/26 06:44:02;;;;;;;79.38;32.70;;;;;;;1.21;100.00;97598.31;5006489;28;20465;-51
2022/01/26 06:46:43;;;;;;;73.07;29.67;;;;;;;-146.19;100.00;58918.88;5001922;28;20096;-55
2022/01/26 06:49:29;;;;;;;88.80;34.45;;;;;;;-146.19;100.00;58918.88;4997871;28;20250;-53
2022/01/26 06:51:59;;;;;;;134.55;51.58;;;;;;;1.21;100.00;97613.63;4996774;28;20085;-52
2022/01/26 06:54:27;;;;;;;55.45;23.63;;;;;;;-146.19;100.00;58918.88;5000037;28;20076;-55
2022/01/26 06:56:56;;;;;;;88.72;36.83;;;;;;;1.05;100.00;97613.63;5006650;28;20070;-53
2022/01/26 06:59:25;;;;;;;79.15;33.75;;;;;;;-146.19;100.00;58918.88;5000905;28;20081;-55
2022/01/26 07:01:55;;;;;;;74.93;30.27;;;;;;;-146.19;100.00;58918.88;4999798;28;21376;-54
2022/01/26 07:04:23;;;;;;;73.72;30.20;;;;;;;-146.19;100.00;58918.88;5003887;28;20152;-59
2022/01/26 07:06:52;;;;;;;76.85;31.05;;;;;;;1.03;100.00;97624.06;4996159;28;20084;-50
2022/01/26 07:09:20;;;;;;;83.50;30.33;;;;;;;1.10;100.00;97627.28;4994808;28;20077;-52
2022/01/26 07:11:49;;;;;;;78.22;32.47;;;;;;;-146.19;100.00;-22127.03;5004185;28;20085;-53
2022/01/26 07:19:45;;;;;;;73.53;30.77;;;;;;;-146.19;100.00;58918.88;5007327;28;20754;-51
2022/01/26 07:22:51;;;;;;;75.88;30.15;;;;;;;-146.19;100.00;58918.88;4986933;28;20098;-48
2022/01/26 07:25:19;;;;;;;72.20;30.08;;;;;;;-146.19;100.00;58918.88;5001830;28;20066;-53
2022/01/26 07:27:48;;;;;;;80.70;31.02;;;;;;;-146.19;100.00;58918.88;5002164;28;20065;-51
2022/01/26 07:30:16;;;;;;;79.90;32.78;;;;;;;-146.19;100.00;58918.88;4994555;28;20061;-52
2022/01/26 07:32:46;;;;;;;76.32;31.60;;;;;;;-146.19;100.00;58918.88;4997232;28;20085;-50
2022/01/26 07:35:14;;;;;;;77.07;32.22;;;;;;;-146.19;100.00;58918.88;5000797;28;20583;-52
2022/01/26 07:37:44;;;;;;;76.53;30.67;;;;;;;-146.19;100.00;58918.88;4992825;28;20162;-52
2022/01/26 07:40:13;;;;;;;61.93;25.53;;;;;;;-146.19;100.00;58918.88;4996540;28;20474;-52
2022/01/26 07:42:41;;;;;;;69.68;28.35;;;;;;;-146.19;100.00;58918.88;5001448;28;20491;-50
2022/01/26 07:45:12;;;;;;;68.60;28.70;;;;;;;-146.19;100.00;58918.88;4993051;28;20062;-49
2022/01/26 07:47:40;;;;;;;69.72;26.85;;;;;;;-146.19;100.00;58918.88;4994014;28;20096;-47
2022/01/26 07:50:14;;;;;;;66.30;27.75;;;;;;;-146.19;100.00;58918.88;4997675;28;20077;-53
2022/01/26 07:52:43;;;;;;;65.47;26.70;;;;;;;-146.19;100.00;58918.88;4996764;28;20078;-52
2022/01/26 07:55:15;;;;;;;65.28;26.75;;;;;;;-146.19;100.00;58918.88;4997367;28;20077;-55
2022/01/26 07:57:45;;;;;;;66.75;27.02;;;;;;;-146.19;100.00;58918.88;4991850;28;20042;-51
2022/01/26 08:00:14;;;;;;;61.33;25.92;;;;;;;-146.19;100.00;58918.88;4994663;28;20070;-50
2022/01/26 08:02:43;;;;;;;66.40;27.80;;;;;;;-146.19;100.00;58918.88;4993806;28;20085;-52
2022/01/26 08:05:14;;;;;;;64.78;26.73;;;;;;;-146.19;100.00;58918.88;4996417;28;20161;-49
2022/01/26 08:07:43;;;;;;;63.03;28.63;;;;;;;-146.19;100.00;58918.88;4997811;28;20084;-51
2022/01/26 08:10:12;;;;;;;59.72;26.92;;;;;;;-146.19;100.00;58918.88;4998653;28;20069;-55
2022/01/26 08:12:41;;;;;;;56.50;24.80;;;;;;;-146.19;100.00;58918.88;4991739;28;20080;-49
2022/01/26 08:15:24;;;;;;;65.28;27.85;;;;;;;-146.19;100.00;58918.88;4982027;28;20058;-51
2022/01/26 08:17:52;;;;;;;57.72;25.27;;;;;;;-146.19;100.00;58918.88;4974489;28;20077;-52
2022/01/26 08:20:22;;;;;;;66.18;28.25;;;;;;;-146.19;100.00;58918.88;4978325;28;20086;-47
2022/01/26 08:22:52;;;;;;;68.68;29.40;;;;;;;-146.19;100.00;58918.88;4977390;28;20066;-52
2022/01/26 08:25:22;;;;;;;55.92;24.13;;;;;;;-146.19;100.00;58918.88;4974531;28;20077;-51
2022/01/26 08:27:57;;;;;;;71.57;29.52;;;;;;;-146.19;100.00;58918.88;4980794;28;20042;-53
2022/01/26 08:30:28;;;;;;;53.78;24.42;;;;;;;-146.19;100.00;58918.88;4998121;28;20119;-51
2022/01/26 08:32:56;;;;;;;61.38;27.27;;;;;;;-146.19;100.00;58918.88;4998048;28;20065;-52
2022/01/26 08:35:26;;;;;;;57.70;25.88;;;;;;;-146.19;100.00;58918.88;4998419;28;20085;-49
2022/01/26 08:37:54;;;;;;;58.58;24.58;;;;;;;-146.19;100.00;58918.88;5001141;28;21762;-47
2022/01/26 08:40:23;;;;;;;50.63;22.90;;;;;;;-146.19;100.00;58918.88;4997271;28;20752;-48
2022/01/26 08:42:51;;;;;;;58.17;24.20;;;;;;;-146.19;100.00;58918.88;4996781;28;20533;-53
2022/01/26 08:45:23;;;;;;;57.33;26.20;;;;;;;-146.19;100.00;58918.88;4992849;28;20078;-47
2022/01/26 08:47:52;;;;;;;40.25;19.92;;;;;;;-146.19;100.00;58918.88;4999774;28;20065;-52
2022/01/26 08:50:21;;;;;;;52.15;23.75;;;;;;;-146.19;100.00;58918.88;4996486;28;20065;-51
2022/01/26 08:52:50;;;;;;;40.92;18.30;;;;;;;-146.19;100.00;58918.88;4996846;28;20076;-49
2022/01/26 08:55:19;;;;;;;40.30;19.98;;;;;;;-146.19;100.00;58918.88;4993450;28;20062;-56
2022/01/26 08:57:48;;;;;;;58.42;26.88;;;;;;;-146.19;100.00;58918.88;4994119;28;20074;-53
2022/01/26 09:00:17;;;;;;;55.38;25.88;;;;;;;-146.19;100.00;58918.88;5000362;28;20067;-47
2022/01/26 09:02:47;;;;;;;52.30;22.10;;;;;;;-146.19;100.00;58918.88;4998118;28;20073;-49
2022/01/26 09:05:16;;;;;;;35.30;16.77;;;;;;;-146.19;100.00;58918.88;4979285;28;20077;-50
2022/01/26 09:07:45;;;;;;;40.42;18.15;;;;;;;-146.19;100.00;58918.88;4977361;28;20077;-48
2022/01/26 09:10:15;;;;;;;36.83;15.52;;;;;;;-146.19;100.00;58918.88;4968950;28;20490;-53
2022/01/26 09:12:45;;;;;;;50.33;22.08;;;;;;;-146.19;100.00;58918.88;4968124;28;20082;-55
2022/01/26 09:15:14;;;;;;;50.20;22.67;;;;;;;-146.19;100.00;58918.88;4977355;28;20096;-51
2022/01/26 09:17:43;;;;;;;57.22;25.50;;;;;;;-146.19;100.00;58918.88;4972932;28;20055;-54
2022/01/26 09:20:14;;;;;;;50.25;21.70;;;;;;;-146.19;100.00;58918.88;4970190;28;20656;-51
2022/01/26 09:22:42;;;;;;;54.42;23.60;;;;;;;-146.19;100.00;58918.88;4979579;28;20136;-48
2022/01/26 09:25:11;;;;;;;52.88;25.08;;;;;;;-146.19;100.00;58918.88;4989516;28;20100;-50
2022/01/26 09:27:41;;;;;;;62.50;27.88;;;;;;;-146.19;100.00;58918.88;4996407;28;20073;-50
2022/01/26 09:30:11;;;;;;;40.45;18.85;;;;;;;-146.19;100.00;58918.88;4992453;28;20077;-49
2022/01/26 09:32:40;;;;;;;38.58;19.08;;;;;;;-146.19;100.00;58918.88;4990518;28;20097;-51
2022/01/26 09:35:10;;;;;;;48.40;20.20;;;;;;;-146.19;100.00;58918.88;5005057;28;20089;-53
2022/01/26 09:37:38;;;;;;;36.80;17.63;;;;;;;-146.19;100.00;58918.88;5011608;28;20061;-51
2022/01/26 09:40:07;;;;;;;56.17;25.00;;;;;;;-146.19;100.00;58918.88;4996487;28;20064;-48
2022/01/26 09:42:36;;;;;;;56.33;27.08;;;;;;;-146.19;100.00;58918.88;5005378;28;20058;-52
2022/01/26 09:45:08;;;;;;;55.15;24.65;;;;;;;-146.19;100.00;58918.88;5000287;28;20061;-49
2022/01/26 09:47:37;;;;;;;43.10;20.10;;;;;;;-146.19;100.00;58918.88;5001843;28;20082;-51
2022/01/26 09:50:25;;;;;;;54.67;26.05;;;;;;;-146.19;100.00;58918.88;4993641;28;20080;-55
2022/01/26 09:52:55;;;;;;;61.28;27.70;;;;;;;-146.19;100.00;58918.88;5002977;28;20074;-47
2022/01/26 09:55:25;;;;;;;50.78;24.27;;;;;;;-146.19;100.00;58918.88;4992511;28;20066;-55
2022/01/26 09:57:58;;;;;;;48.10;22.75;;;;;;;-146.19;100.00;58918.88;4995509;28;20552;-49
2022/01/26 10:00:28;;;;;;;60.85;26.17;;;;;;;-146.19;100.00;58918.88;4995691;28;20065;-52
2022/01/26 10:02:58;;;;;;;53.70;24.27;;;;;;;-146.19;100.00;58918.88;4996630;28;20069;-52
2022/01/26 10:05:38;;;;;;;59.78;27.40;;;;;;;-146.19;100.00;58918.88;5003349;28;20547;-52
2022/01/26 10:08:12;;;;;;;58.25;26.52;;;;;;;-146.19;100.00;58918.88;5000187;28;21451;-51
2022/01/26 10:17:18;;;;;;;41.33;17.90;;;;;;;-146.19;100.00;58918.88;4996109;28;20066;-53
2022/01/26 10:19:35;;;;;;;45.92;22.02;;;;;;;-146.19;100.00;58918.88;4993880;28;20070;-51
2022/01/26 10:22:03;;;;;;;55.53;25.55;;;;;;;-146.19;100.00;58918.88;4999782;28;20080;-52
2022/01/26 10:24:33;;;;;;;51.38;24.27;;;;;;;1.96;100.00;97624.78;4996420;28;20066;-54
2022/01/26 10:27:02;;;;;;;59.38;25.80;;;;;;;2.29;100.00;97627.69;4996540;28;20074;-52
2022/01/26 10:29:33;;;;;;;53.58;24.20;;;;;;;2.41;100.00;97633.28;4995341;28;20074;-52
2022/01/26 10:32:13;;;;;;;47.72;21.55;;;;;;;2.73;100.00;97637.13;4997240;28;20314;-53
2022/01/26 10:34:41;;;;;;;56.25;24.10;;;;;;;2.53;100.00;97638.00;5004734;28;20085;-52
2022/01/26 10:37:10;;;;;;;48.15;20.42;;;;;;;2.58;100.00;97638.63;4995801;28;20072;-53
2022/01/26 10:39:44;;;;;;;66.97;28.83;;;;;;;2.81;100.00;97625.44;4996469;28;20074;-54
2022/01/26 10:42:19;;;;;;;62.75;28.85;;;;;;;2.45;100.00;97609.69;4992334;28;20070;-52
2022/01/26 10:44:54;;;;;;;51.15;25.23;;;;;;;2.36;100.00;97603.09;4981574;28;20147;-49
2022/01/26 10:47:34;;;;;;;55.60;26.08;;;;;;;2.40;100.00;97601.22;4975488;28;20093;-52
2022/01/26 10:50:31;;;;;;;62.97;29.75;;;;;;;2.21;100.00;97595.13;4973380;28;20066;-55
2022/01/26 10:53:07;;;;;;;60.63;27.10;;;;;;;2.21;100.00;97595.13;4972988;28;20464;-52
2022/01/26 10:55:37;;;;;;;58.63;26.63;;;;;;;2.30;100.00;97585.13;4974683;28;20082;-57
2022/01/26 10:58:07;;;;;;;59.55;27.75;;;;;;;2.63;100.00;97579.38;4995830;28;20073;-53
2022/01/26 11:00:37;;;;;;;48.83;21.35;;;;;;;2.63;100.00;97579.38;4992410;28;20077;-55
2022/01/26 11:03:08;;;;;;;56.72;26.25;;;;;;;2.63;100.00;97579.38;4993989;28;20057;-48
2022/01/26 11:05:36;;;;;;;;;;;;;;;2.94;100.00;97557.16;5009614;28;20078;-52
2022/01/26 11:08:05;;;;;;;58.83;26.27;;;;;;;2.94;100.00;97557.16;4996010;28;19952;-49
2022/01/26 11:10:36;;;;;;;59.38;26.60;;;;;;;2.94;100.00;97557.16;4976225;28;20112;-54
2022/01/26 11:13:06;;;;;;;58.15;27.98;;;;;;;2.94;100.00;97557.16;4980710;28;20070;-53
2022/01/26 11:15:34;;;;;;;56.55;27.00;;;;;;;2.94;100.00;97557.16;4980317;28;20085;-50
2022/01/26 11:18:10;;;;;;;60.63;27.92;;;;;;;3.07;100.00;97564.34;4970420;28;20065;-52
2022/01/26 11:20:48;;;;;;;66.82;27.83;;;;;;;3.07;100.00;97564.34;4972104;28;20086;-54
2022/01/26 11:23:19;;;;;;;64.05;28.58;;;;;;;3.04;100.00;97563.66;4975131;28;20082;-54
2022/01/26 11:25:49;;;;;;;62.22;25.08;;;;;;;3.08;100.00;97566.03;4973992;28;20097;-53
2022/01/26 11:28:20;;;;;;;64.43;28.98;;;;;;;2.96;100.00;97557.91;4972831;28;20520;-50
2022/01/26 11:30:50;;;;;;;58.65;25.60;;;;;;;3.11;100.00;97564.22;4972072;28;20086;-51
2022/01/26 11:33:23;;;;;;;68.88;30.30;;;;;;;2.79;100.00;97556.97;4984314;28;20204;-51
2022/01/26 11:35:53;;;;;;;61.85;27.45;;;;;;;2.79;100.00;97556.97;4998196;28;20088;-56
2022/01/26 11:39:14;;;;;;;54.83;26.35;;;;;;;2.82;100.00;97556.81;4995781;28;20084;-53
2022/01/26 11:47:20;;;;;;;59.50;28.00;;;;;;;3.25;100.00;97540.94;4993822;28;20409;-55
2022/01/26 11:49:52;;;;;;;58.88;26.17;;;;;;;3.25;100.00;97540.94;4997509;28;20070;-51
2022/01/26 11:52:22;;;;;;;27.35;14.77;;;;;;;3.21;100.00;97545.47;4996073;28;20065;-48
2022/01/26 11:54:53;;;;;;;70.80;31.60;;;;;;;3.40;100.00;97548.00;4993969;28;20069;-50
2022/01/26 11:57:38;;;;;;;63.80;29.38;;;;;;;3.40;100.00;97548.00;4997259;28;20081;-53
2022/01/26 12:00:10;;;;;;;58.55;26.75;;;;;;;3.45;100.00;97556.47;4998786;28;20061;-53
2022/01/26 12:02:51;;;;;;;61.70;27.05;;;;;;;3.44;100.00;97567.84;4994351;28;20089;-53
2022/01/26 12:05:23;;;;;;;;;;;;;;;3.44;100.00;97567.84;4997062;28;20575;-47
2022/01/26 12:07:52;;;;;;;52.58;23.55;;;;;;;3.44;100.00;97567.84;4998719;28;20033;-57
2022/01/26 12:10:28;;;;;;;29.65;16.17;;;;;;;2.62;100.00;97595.94;4994669;28;20141;-52
2022/01/26 12:13:03;;;;;;;40.90;20.00;;;;;;;-146.19;100.00;58918.88;5002080;28;20057;-49
2022/01/26 12:15:40;;;;;;;40.78;20.40;;;;;;;188.59;100.00;113004.16;4990481;28;20073;-53
2022/01/26 12:18:24;;;;;;;55.30;26.00;;;;;;;-146.19;100.00;58918.88;4974707;28;21807;-50
2022/01/26 12:32:45;;;;;;;55.08;26.75;;;;;;;-146.19;100.00;58918.88;4997728;28;20484;-53
2022/01/26 12:35:22;;;;;;;43.20;22.05;;;;;;;-146.19;100.00;58918.88;4972328;28;20465;-49
2022/01/26 12:37:58;;;;;;;46.25;21.50;;;;;;;-146.19;100.00;58918.88;4970686;28;20073;-55
2022/01/26 12:43:15;;;;;;;39.42;21.25;;;;;;;-146.19;100.00;58918.88;4994744;28;20547;-51
2022/01/26 12:45:59;;;;;;;58.03;25.63;;;;;;;-146.19;100.00;58918.88;4997194;28;20460;-52
2022/01/26 12:48:29;;;;;;;57.72;26.10;;;;;;;-146.19;100.00;58918.88;4996249;28;20069;-53
2022/01/26 12:50:59;;;;;;;47.40;21.60;;;;;;;-146.19;100.00;58918.88;4996315;28;20515;-52
2022/01/26 12:53:30;;;;;;;45.58;22.10;;;;;;;-146.19;100.00;58918.88;4998970;28;20089;-55
2022/01/26 12:56:00;;;;;;;54.28;25.13;;;;;;;-146.19;100.00;58918.88;4992407;28;20494;-55
2022/01/26 12:58:30;;;;;;;54.90;28.27;;;;;;;-146.19;100.00;58918.88;4990039;28;20077;-56
2022/01/26 13:01:04;;;;;;;51.45;23.88;;;;;;;-146.19;100.00;58918.88;4997580;28;20069;-55
2022/01/26 13:03:34;;;;;;;59.17;27.63;;;;;;;-146.19;100.00;58918.88;4998564;28;20070;-53
2022/01/26 13:06:08;;;;;;;55.42;25.17;;;;;;;-146.19;100.00;58918.88;4996510;28;20800;-54